createdAt,value
2019-03-23T00:00:32.787Z,95983.56
2019-03-23T00:03:05.034Z,95979.88
2019-03-23T00:05:36.318Z,95979.88
2019-03-23T00:08:10.875Z,95964.41
2019-03-23T00:10:41.743Z,95974.08
2019-03-23T00:13:12.443Z,95974.08
2019-03-23T00:15:43.564Z,95968.59
2019-03-23T00:18:13.614Z,95957.56
2019-03-23T00:20:45.032Z,95957.56
2019-03-23T00:23:16.910Z,95957.09
2019-03-23T00:25:48.116Z,95956.77
2019-03-23T00:28:21.691Z,95950.02
2019-03-23T00:30:52.105Z,95949.56
2019-03-23T00:33:23.237Z,95946.50
2019-03-23T00:35:56.248Z,95939.59
2019-03-23T00:38:26.455Z,95952.80
2019-03-23T00:40:58.529Z,95946.55
2019-03-23T00:43:30.623Z,95938.51
2019-03-23T00:46:00.702Z,95934.14
2019-03-23T00:48:31.482Z,95931.41
2019-03-23T00:51:02.424Z,95935.61
2019-03-23T00:53:36.026Z,95928.21
2019-03-23T00:56:07.941Z,95918.75
2019-03-23T00:58:38.491Z,95918.55
2019-03-23T01:01:09.442Z,95925.80
2019-03-23T01:03:40.483Z,95928.57
2019-03-23T01:06:12.248Z,95922.95
2019-03-23T01:08:43.857Z,95920.52
2019-03-23T01:11:14.849Z,95919.25
2019-03-23T01:13:45.157Z,95912.45
2019-03-23T01:16:16.972Z,95916.66
2019-03-23T01:18:50.693Z,95904.76
2019-03-23T01:21:21.763Z,95902.80
2019-03-23T01:23:52.880Z,95902.95
2019-03-23T01:26:26.058Z,95907.80
2019-03-23T01:28:56.235Z,95907.80
2019-03-23T01:31:27.822Z,95899.25
2019-03-23T01:34:01.924Z,95902.63
2019-03-23T01:36:34.594Z,95907.92
2019-03-23T01:39:05.999Z,95906.02
2019-03-23T01:41:37.093Z,95904.38
2019-03-23T01:44:07.613Z,95896.33
2019-03-23T01:46:39.127Z,95894.30
2019-03-23T01:49:13.901Z,95895.42
2019-03-23T01:51:43.859Z,95883.83
2019-03-23T01:54:17.337Z,95878.67
2019-03-23T01:56:48.803Z,95870.78
2019-03-23T01:59:20.544Z,95860.69
2019-03-23T02:01:54.053Z,95854.55
2019-03-23T02:04:24.495Z,95854.27
2019-03-23T02:06:55.041Z,95849.26
2019-03-23T02:09:30.292Z,95850.23
2019-03-23T02:12:02.202Z,95851.52
2019-03-23T02:14:34.734Z,95853.47
2019-03-23T02:17:06.569Z,95851.70
2019-03-23T02:19:37.099Z,95851.86
2019-03-23T02:22:07.913Z,95857.49
2019-03-23T02:24:38.410Z,95853.94
2019-03-23T02:27:09.485Z,95858.44
2019-03-23T02:29:39.501Z,95861.34
2019-03-23T02:32:10.809Z,95862.61
2019-03-23T02:34:41.085Z,95870.82
2019-03-23T02:37:12.114Z,95867.12
2019-03-23T02:39:43.709Z,95878.06
2019-03-23T02:42:16.508Z,95880.33
2019-03-23T02:44:47.714Z,95877.89
2019-03-23T02:47:17.826Z,95872.41
2019-03-23T02:49:48.670Z,95882.26
2019-03-23T02:52:19.470Z,95883.52
2019-03-23T02:54:50.052Z,95879.34
2019-03-23T02:57:21.458Z,95879.64
2019-03-23T02:59:52.793Z,95876.09
2019-03-23T03:02:24.205Z,95873.70
2019-03-23T03:04:54.727Z,95873.23
2019-03-23T03:07:40.773Z,95874.53
2019-03-23T03:09:58.975Z,95888.05
2019-03-23T03:12:30.261Z,95882.41
2019-03-23T03:15:03.153Z,95889.66
2019-03-23T03:17:34.481Z,95886.13
2019-03-23T03:20:06.931Z,95891.91
2019-03-23T03:22:38.091Z,95885.16
2019-03-23T03:25:09.163Z,95881.12
2019-03-23T03:27:40.452Z,95888.04
2019-03-23T03:30:12.939Z,95889.97
2019-03-23T03:32:43.408Z,95897.70
2019-03-23T03:35:14.598Z,95899.94
2019-03-23T03:37:56.554Z,95902.32
2019-03-23T03:40:19.669Z,95906.36
2019-03-23T03:42:50.330Z,95910.36
2019-03-23T03:45:25.718Z,95910.67
2019-03-23T03:47:56.250Z,95909.46
2019-03-23T03:50:26.547Z,95911.41
2019-03-23T03:52:56.621Z,95912.08
2019-03-23T03:55:26.743Z,95916.36
2019-03-23T03:57:56.738Z,95910.06
2019-03-23T04:00:26.840Z,95905.86
2019-03-23T04:02:57.068Z,95909.35
2019-03-23T04:05:27.165Z,95908.03
2019-03-23T04:08:10.470Z,95902.30
2019-03-23T04:10:29.145Z,95899.99
2019-03-23T04:12:59.688Z,95899.99
2019-03-23T04:15:29.899Z,95907.70
2019-03-23T04:18:00.247Z,95907.19
2019-03-23T04:20:30.433Z,95901.94
2019-03-23T04:23:00.624Z,95905.46
2019-03-23T04:25:30.701Z,95902.56
2019-03-23T04:28:01.135Z,95904.80
2019-03-23T04:30:33.225Z,95908.66
2019-03-23T04:33:03.269Z,95917.65
2019-03-23T04:35:36.424Z,95910.96
2019-03-23T04:38:06.603Z,95908.72
2019-03-23T04:40:36.708Z,95909.08
2019-03-23T04:43:06.866Z,95912.39
2019-03-23T04:45:39.732Z,95910.80
2019-03-23T04:48:09.822Z,95914.30
2019-03-23T04:50:39.983Z,95915.78
2019-03-23T04:53:10.300Z,95916.99
2019-03-23T04:55:44.279Z,95915.93
2019-03-23T04:58:14.358Z,95908.28
2019-03-23T05:00:44.598Z,95911.19
2019-03-23T05:03:14.731Z,95910.56
2019-03-23T05:05:44.861Z,95910.90
2019-03-23T05:08:14.943Z,95900.27
2019-03-23T05:10:45.171Z,95901.72
2019-03-23T05:13:15.356Z,95911.20
2019-03-23T05:15:45.397Z,95914.10
2019-03-23T05:18:15.526Z,95913.95
2019-03-23T05:20:45.827Z,95921.48
2019-03-23T05:23:16.008Z,95923.42
2019-03-23T05:25:46.014Z,95929.67
2019-03-23T05:28:16.250Z,95926.58
2019-03-23T05:30:46.620Z,95929.47
2019-03-23T05:33:16.804Z,95937.18
2019-03-23T05:35:47.140Z,95937.31
2019-03-23T05:38:17.431Z,95941.77
2019-03-23T05:40:47.708Z,95938.66
2019-03-23T05:43:17.972Z,95940.34
2019-03-23T05:45:50.259Z,95934.01
2019-03-23T05:48:20.612Z,95943.81
2019-03-23T05:50:50.792Z,95943.16
2019-03-23T05:53:20.980Z,95945.55
2019-03-23T05:55:51.236Z,95948.29
2019-03-23T05:58:21.504Z,95944.79
2019-03-23T06:00:54.549Z,95951.84
2019-03-23T06:03:25.470Z,95948.41
2019-03-23T06:05:58.541Z,95932.25
2019-03-23T06:08:28.709Z,95932.25
2019-03-23T06:10:58.993Z,95937.34
2019-03-23T06:13:30.254Z,95931.25
2019-03-23T06:16:00.945Z,95936.92
2019-03-23T06:18:31.113Z,95932.61
2019-03-23T06:21:01.246Z,95924.30
2019-03-23T06:23:31.321Z,95921.83
2019-03-23T06:26:02.068Z,95916.58
2019-03-23T06:28:32.200Z,95921.00
2019-03-23T06:31:03.735Z,95915.64
2019-03-23T06:33:34.327Z,95902.11
2019-03-23T06:36:04.600Z,95908.36
2019-03-23T06:38:37.231Z,95893.97
2019-03-23T06:41:07.343Z,95885.11
2019-03-23T06:43:37.626Z,95893.87
2019-03-23T06:46:07.822Z,95884.77
2019-03-23T06:48:37.854Z,95887.72
2019-03-23T06:51:07.934Z,95893.80
2019-03-23T06:53:38.136Z,95893.87
2019-03-23T06:56:09.131Z,95892.36
2019-03-23T06:58:39.303Z,95892.51
2019-03-23T07:01:09.926Z,95898.48
2019-03-23T07:03:40.103Z,95908.13
2019-03-23T07:06:10.346Z,95901.94
2019-03-23T07:08:40.529Z,95906.88
2019-03-23T07:11:10.850Z,95905.10
2019-03-23T07:13:41.680Z,95901.93
2019-03-23T07:16:13.114Z,95904.09
2019-03-23T07:18:43.185Z,95898.45
2019-03-23T07:21:13.204Z,95894.69
2019-03-23T07:23:43.289Z,95890.10
2019-03-23T07:26:13.748Z,95892.74
2019-03-23T07:28:44.814Z,95891.13
2019-03-23T07:31:15.068Z,95888.67
2019-03-23T07:33:47.544Z,95891.47
2019-03-23T07:36:18.240Z,95889.55
2019-03-23T07:38:50.589Z,95881.76
2019-03-23T07:41:24.210Z,95881.22
2019-03-23T07:43:54.348Z,95888.09
2019-03-23T07:46:25.614Z,95886.26
2019-03-23T07:48:55.985Z,95883.89
2019-03-23T07:51:28.423Z,95878.30
2019-03-23T07:54:02.806Z,95874.16
2019-03-23T07:56:35.215Z,95866.95
2019-03-23T07:59:05.370Z,95866.02
2019-03-23T08:01:35.820Z,95871.52
2019-03-23T08:04:06.045Z,95872.37
2019-03-23T08:06:36.271Z,95871.66
2019-03-23T08:09:07.808Z,95876.64
2019-03-23T08:11:37.782Z,95870.80
2019-03-23T08:14:08.029Z,95865.22
2019-03-23T08:16:38.449Z,95872.23
2019-03-23T08:19:12.553Z,95871.54
2019-03-23T08:21:42.825Z,95866.29
2019-03-23T08:24:12.923Z,95854.06
2019-03-23T08:26:43.018Z,95842.20
2019-03-23T08:29:13.207Z,95842.20
2019-03-23T08:31:43.685Z,95845.66
2019-03-23T08:34:13.885Z,95851.31
2019-03-23T08:36:44.400Z,95845.69
2019-03-23T08:39:14.701Z,95843.95
2019-03-23T08:41:44.781Z,95836.71
2019-03-23T08:44:17.395Z,95830.86
2019-03-23T08:46:47.604Z,95827.66
2019-03-23T08:49:19.257Z,95819.80
2019-03-23T08:51:49.554Z,95825.13
2019-03-23T08:54:19.700Z,95822.57
2019-03-23T08:56:49.912Z,95815.09
2019-03-23T08:59:21.818Z,95816.16
2019-03-23T09:01:51.971Z,95815.53
2019-03-23T09:04:23.098Z,95806.11
2019-03-23T09:06:53.686Z,95802.44
2019-03-23T09:09:24.030Z,95802.05
2019-03-23T09:11:54.265Z,95799.95
2019-03-23T09:14:24.519Z,95806.23
2019-03-23T09:16:54.622Z,95784.16
2019-03-23T09:19:25.147Z,95791.55
2019-03-23T09:21:55.706Z,95791.22
2019-03-23T09:24:26.345Z,95792.68
2019-03-23T09:26:56.756Z,95789.83
2019-03-23T09:29:27.040Z,95789.01
2019-03-23T09:31:57.338Z,95787.31
2019-03-23T09:34:29.849Z,95787.96
2019-03-23T09:37:00.090Z,95790.16
2019-03-23T09:39:31.223Z,95781.35
2019-03-23T09:42:01.417Z,95786.73
2019-03-23T09:44:31.546Z,95777.00
2019-03-23T09:47:02.141Z,95776.66
2019-03-23T09:49:32.364Z,95770.40
2019-03-23T09:52:02.573Z,95774.59
2019-03-23T09:54:34.293Z,95770.61
2019-03-23T09:57:05.145Z,95762.63
2019-03-23T09:59:35.197Z,95755.84
2019-03-23T10:02:05.576Z,95755.80
2019-03-23T10:04:36.043Z,95754.95
2019-03-23T10:07:06.507Z,95759.44
2019-03-23T10:09:36.741Z,95751.95
2019-03-23T10:12:09.109Z,95753.31
2019-03-23T10:14:39.246Z,95751.11
2019-03-23T10:17:09.505Z,95743.67
2019-03-23T10:19:41.787Z,95746.35
2019-03-23T10:22:12.018Z,95742.98
2019-03-23T10:24:42.235Z,95742.92
2019-03-23T10:27:13.127Z,95741.81
2019-03-23T10:29:43.806Z,95737.83
2019-03-23T10:32:14.085Z,95734.94
2019-03-23T10:34:44.317Z,95725.46
2019-03-23T10:37:14.601Z,95724.14
2019-03-23T10:39:46.875Z,95723.13
2019-03-23T10:42:17.430Z,95725.49
2019-03-23T10:44:47.640Z,95722.52
2019-03-23T10:47:17.798Z,95710.79
2019-03-23T10:49:47.860Z,95716.47
2019-03-23T10:52:23.720Z,95707.55
2019-03-23T10:54:54.468Z,95700.51
2019-03-23T10:57:24.673Z,95690.52
2019-03-23T10:59:54.880Z,95692.64
2019-03-23T11:02:25.026Z,95683.12
2019-03-23T11:04:55.063Z,95670.91
2019-03-23T11:07:25.308Z,95675.41
2019-03-23T11:09:55.511Z,95670.40
2019-03-23T11:12:26.238Z,95665.61
2019-03-23T11:14:57.100Z,95656.22
2019-03-23T11:17:27.669Z,95651.63
2019-03-23T11:20:00.039Z,95648.54
2019-03-23T11:22:30.224Z,95646.16
2019-03-23T11:25:00.446Z,95640.21
2019-03-23T11:27:30.623Z,95633.28
2019-03-23T11:30:00.733Z,95634.77
2019-03-23T11:32:30.930Z,95624.64
2019-03-23T11:35:01.052Z,95629.59
2019-03-23T11:37:31.491Z,95628.42
2019-03-23T11:40:01.631Z,95630.50
2019-03-23T11:42:31.823Z,95613.88
2019-03-23T11:45:02.162Z,95611.50
2019-03-23T11:47:32.396Z,95603.97
2019-03-23T11:50:02.625Z,95603.81
2019-03-23T11:52:32.885Z,95594.70
2019-03-23T11:55:03.110Z,95594.63
2019-03-23T11:57:33.602Z,95595.95
2019-03-23T12:00:03.751Z,95585.27
2019-03-23T12:02:34.118Z,95579.58
2019-03-23T12:05:05.060Z,95578.94
2019-03-23T12:07:35.280Z,95580.81
2019-03-23T12:10:07.352Z,95582.37
2019-03-23T12:12:38.021Z,95568.30
2019-03-23T12:15:08.848Z,95562.42
2019-03-23T12:17:39.160Z,95550.69
2019-03-23T12:20:11.162Z,95554.22
2019-03-23T12:22:42.029Z,95549.33
2019-03-23T12:25:14.596Z,95545.98
2019-03-23T12:27:44.846Z,95536.28
2019-03-23T12:30:16.714Z,95536.80
2019-03-23T12:32:46.971Z,95533.69
2019-03-23T12:35:17.423Z,95536.70
2019-03-23T12:37:47.750Z,95537.70
2019-03-23T12:40:19.979Z,95532.06
2019-03-23T12:42:50.876Z,95525.20
2019-03-23T12:45:20.984Z,95521.38
2019-03-23T12:47:51.901Z,95523.53
2019-03-23T12:50:22.078Z,95524.11
2019-03-23T12:52:52.196Z,95527.53
2019-03-23T12:55:24.639Z,95518.81
2019-03-23T12:57:55.140Z,95515.91
2019-03-23T13:00:25.302Z,95513.59
2019-03-23T13:02:56.485Z,95514.66
2019-03-23T13:05:26.658Z,95506.92
2019-03-23T13:07:58.326Z,95507.41
2019-03-23T13:10:32.210Z,95501.14
2019-03-23T13:13:03.136Z,95491.12
2019-03-23T13:15:34.506Z,95488.01
2019-03-23T13:18:04.685Z,95469.45
2019-03-23T13:20:36.453Z,95482.43
2019-03-23T13:23:06.937Z,95478.91
2019-03-23T13:25:37.161Z,95480.50
2019-03-23T13:28:07.390Z,95467.99
2019-03-23T13:30:39.294Z,95458.14
2019-03-23T13:33:10.128Z,95463.12
2019-03-23T13:35:40.198Z,95455.42
2019-03-23T13:38:10.536Z,95451.05
2019-03-23T13:40:40.665Z,95455.82
2019-03-23T13:43:11.736Z,95457.22
2019-03-23T13:45:42.834Z,95449.44
2019-03-23T13:48:13.794Z,95452.72
2019-03-23T13:50:45.887Z,95447.14
2019-03-23T13:53:16.249Z,95445.34
2019-03-23T13:55:46.278Z,95440.31
2019-03-23T13:58:16.668Z,95437.45
2019-03-23T14:00:48.225Z,95431.41
2019-03-23T14:03:19.657Z,95433.30
2019-03-23T14:05:50.048Z,95426.45
2019-03-23T14:08:22.237Z,95426.22
2019-03-23T14:10:52.432Z,95430.16
2019-03-23T14:13:24.098Z,95427.09
2019-03-23T14:15:55.498Z,95427.66
2019-03-23T14:18:26.256Z,95421.58
2019-03-23T14:20:56.646Z,95423.14
2019-03-23T14:23:29.292Z,95417.10
2019-03-23T14:26:00.977Z,95415.52
2019-03-23T14:28:31.510Z,95414.97
2019-03-23T14:31:02.916Z,95407.61
2019-03-23T14:33:33.192Z,95409.97
2019-03-23T14:36:03.597Z,95412.61
2019-03-23T14:38:36.355Z,95408.67
2019-03-23T14:41:06.612Z,95407.59
2019-03-23T14:43:36.984Z,95406.02
2019-03-23T14:46:10.600Z,95401.03
2019-03-23T14:48:42.606Z,95402.61
2019-03-23T14:51:16.101Z,95406.03
2019-03-23T14:53:46.722Z,95405.21
2019-03-23T14:56:17.135Z,95407.88
2019-03-23T14:58:47.590Z,95394.69
2019-03-23T15:01:17.707Z,95402.86
2019-03-23T15:03:48.072Z,95402.86
2019-03-23T15:06:18.131Z,95402.06
2019-03-23T15:08:50.378Z,95397.30
2019-03-23T15:11:20.553Z,95405.41
2019-03-23T15:13:51.503Z,95407.77
2019-03-23T15:16:22.036Z,95410.88
2019-03-23T15:18:52.652Z,95411.63
2019-03-23T15:21:23.340Z,95406.36
2019-03-23T15:23:53.864Z,95410.76
2019-03-23T15:26:24.209Z,95413.61
2019-03-23T15:28:54.938Z,95410.69
2019-03-23T15:31:26.760Z,95413.57
2019-03-23T15:33:57.023Z,95409.88
2019-03-23T15:36:27.273Z,95411.99
2019-03-23T15:38:57.830Z,95411.16
2019-03-23T15:41:28.005Z,95415.60
2019-03-23T15:43:58.049Z,95412.66
2019-03-23T15:46:28.383Z,95413.67
2019-03-23T15:48:58.770Z,95409.95
2019-03-23T15:51:29.306Z,95417.00
2019-03-23T15:54:01.948Z,95417.52
2019-03-23T15:56:32.467Z,95417.80
2019-03-23T15:59:05.196Z,95420.63
2019-03-23T16:01:37.099Z,95422.67
2019-03-23T16:04:07.634Z,95417.06
2019-03-23T16:06:38.805Z,95425.31
2019-03-23T16:09:09.449Z,95423.66
2019-03-23T16:11:41.529Z,95420.80
2019-03-23T16:14:12.724Z,95422.44
2019-03-23T16:16:42.924Z,95420.22
2019-03-23T16:19:13.490Z,95420.49
2019-03-23T16:21:43.837Z,95419.22
2019-03-23T16:24:14.287Z,95426.53
2019-03-23T16:26:44.500Z,95433.00
2019-03-23T16:29:14.776Z,95427.20
2019-03-23T16:31:45.067Z,95440.47
2019-03-23T16:34:15.140Z,95430.41
2019-03-23T16:36:45.373Z,95439.06
2019-03-23T16:39:15.796Z,95444.97
2019-03-23T16:41:46.152Z,95447.77
2019-03-23T16:44:16.465Z,95447.91
2019-03-23T16:46:46.683Z,95451.04
2019-03-23T16:49:17.501Z,95451.42
2019-03-23T16:51:47.881Z,95461.81
2019-03-23T16:54:18.021Z,95456.80
2019-03-23T16:56:48.196Z,95465.64
2019-03-23T16:59:18.490Z,95463.75
2019-03-23T17:01:49.168Z,95459.90
2019-03-23T17:04:21.302Z,95465.53
2019-03-23T17:06:52.649Z,95469.86
2019-03-23T17:09:26.374Z,95467.64
2019-03-23T17:11:56.818Z,95471.95
2019-03-23T17:14:27.043Z,95474.71
2019-03-23T17:17:00.382Z,95477.42
2019-03-23T17:19:31.117Z,95475.14
2019-03-23T17:22:04.075Z,95481.34
2019-03-23T17:24:34.140Z,95488.00
2019-03-23T17:27:04.786Z,95490.45
2019-03-23T17:29:35.208Z,95490.84
2019-03-23T17:32:06.052Z,95492.36
2019-03-23T17:34:36.260Z,95493.80
2019-03-23T17:37:06.884Z,95503.86
2019-03-23T17:39:37.225Z,95503.17
2019-03-23T17:42:07.409Z,95505.34
2019-03-23T17:44:37.571Z,95505.28
2019-03-23T17:47:07.817Z,95510.01
2019-03-23T17:49:38.170Z,95513.66
2019-03-23T17:52:08.509Z,95515.66
2019-03-23T17:54:38.833Z,95519.83
2019-03-23T17:57:09.232Z,95516.32
2019-03-23T17:59:39.460Z,95519.37
2019-03-23T18:02:09.641Z,95518.39
2019-03-23T18:04:39.845Z,95520.50
2019-03-23T18:07:10.007Z,95521.47
2019-03-23T18:09:40.225Z,95523.00
2019-03-23T18:12:10.488Z,95527.20
2019-03-23T18:14:40.805Z,95526.91
2019-03-23T18:17:11.055Z,95527.75
2019-03-23T18:19:41.243Z,95525.98
2019-03-23T18:22:11.575Z,95524.48
2019-03-23T18:24:41.806Z,95528.22
2019-03-23T18:27:11.817Z,95527.63
2019-03-23T18:29:41.988Z,95523.31
2019-03-23T18:32:12.305Z,95525.52
2019-03-23T18:34:42.665Z,95529.66
2019-03-23T18:37:12.868Z,95527.33
2019-03-23T18:39:43.006Z,95528.94
2019-03-23T18:42:13.263Z,95527.35
2019-03-23T18:44:43.536Z,95529.59
2019-03-23T18:47:14.083Z,95531.02
2019-03-23T18:49:44.380Z,95529.80
2019-03-23T18:52:14.513Z,95534.89
2019-03-23T18:54:44.593Z,95533.41
2019-03-23T18:57:14.912Z,95537.70
2019-03-23T18:59:45.036Z,95535.20
2019-03-23T19:02:15.221Z,95534.61
2019-03-23T19:04:45.473Z,95529.05
2019-03-23T19:07:15.641Z,95526.15
2019-03-23T19:09:45.780Z,95527.61
2019-03-23T19:12:15.961Z,95526.77
2019-03-23T19:14:46.189Z,95532.19
2019-03-23T19:17:16.590Z,95538.75
2019-03-23T19:19:48.513Z,95539.30
2019-03-23T19:22:18.865Z,95542.59
2019-03-23T19:24:49.072Z,95548.74
2019-03-23T19:27:19.412Z,95546.78
2019-03-23T19:29:49.624Z,95550.38
2019-03-23T19:32:19.924Z,95558.02
2019-03-23T19:34:50.147Z,95554.02
2019-03-23T19:37:20.221Z,95555.28
2019-03-23T19:39:50.430Z,95559.23
2019-03-23T19:42:20.606Z,95566.95
2019-03-23T19:44:50.777Z,95567.07
2019-03-23T19:47:21.103Z,95562.67
2019-03-23T19:49:51.279Z,95574.57
2019-03-23T19:52:21.602Z,95569.00
2019-03-23T19:54:51.859Z,95572.88
2019-03-23T19:57:21.933Z,95575.97
2019-03-23T19:59:52.161Z,95567.39
2019-03-23T20:02:22.360Z,95571.00
2019-03-23T20:04:52.544Z,95574.18
2019-03-23T20:07:32.723Z,95569.48
2019-03-23T20:09:57.053Z,95573.88
2019-03-23T20:12:27.319Z,95569.28
2019-03-23T20:14:57.539Z,95568.19
2019-03-23T20:17:27.792Z,95572.30
2019-03-23T20:19:57.867Z,95578.19
2019-03-23T20:22:27.908Z,95579.67
2019-03-23T20:24:57.966Z,95585.06
2019-03-23T20:27:28.123Z,95576.59
2019-03-23T20:29:58.262Z,95573.09
2019-03-23T20:32:28.361Z,95575.30
2019-03-23T20:34:58.638Z,95575.59
2019-03-23T20:37:29.556Z,95579.98
2019-03-23T20:39:59.733Z,95579.39
2019-03-23T20:42:29.993Z,95576.88
2019-03-23T20:45:00.310Z,95577.88
2019-03-23T20:47:30.411Z,95580.89
2019-03-23T20:50:00.553Z,95582.95
2019-03-23T20:52:30.615Z,95579.06
2019-03-23T20:55:00.791Z,95582.38
2019-03-23T20:57:37.446Z,95588.33
2019-03-23T21:00:03.073Z,95584.17
2019-03-23T21:02:33.368Z,95585.27
2019-03-23T21:05:03.700Z,95592.34
2019-03-23T21:07:33.784Z,95596.22
2019-03-23T21:10:04.091Z,95597.59
2019-03-23T21:12:34.159Z,95596.71
2019-03-23T21:15:04.360Z,95601.89
2019-03-23T21:17:34.590Z,95598.58
2019-03-23T21:20:06.438Z,95600.29
2019-03-23T21:22:36.660Z,95606.53
2019-03-23T21:25:07.433Z,95597.56
2019-03-23T21:27:37.712Z,95598.05
2019-03-23T21:30:09.938Z,95599.73
2019-03-23T21:32:40.078Z,95603.60
2019-03-23T21:35:10.465Z,95609.55
2019-03-23T21:37:40.797Z,95604.95
2019-03-23T21:40:11.994Z,95601.97
2019-03-23T21:42:42.198Z,95605.92
2019-03-23T21:45:12.574Z,95600.36
2019-03-23T21:47:42.773Z,95604.39
2019-03-23T21:50:13.349Z,95614.94
2019-03-23T21:52:43.496Z,95608.92
2019-03-23T21:55:14.810Z,95609.80
2019-03-23T21:57:44.906Z,95611.26
2019-03-23T22:00:19.752Z,95607.21
2019-03-23T22:02:50.034Z,95607.50
2019-03-23T22:05:20.182Z,95609.83
2019-03-23T22:07:50.368Z,95623.63
2019-03-23T22:10:20.600Z,95630.30
2019-03-23T22:12:50.856Z,95636.34
2019-03-23T22:15:21.243Z,95636.47
2019-03-23T22:17:53.190Z,95644.57
2019-03-23T22:20:23.356Z,95648.45
2019-03-23T22:22:53.488Z,95651.19
2019-03-23T22:25:23.732Z,95651.90
2019-03-23T22:27:53.869Z,95649.02
2019-03-23T22:30:24.100Z,95656.23
2019-03-23T22:32:54.344Z,95661.23
2019-03-23T22:35:24.439Z,95658.23
2019-03-23T22:37:54.652Z,95659.94
2019-03-23T22:40:24.796Z,95654.91
2019-03-23T22:42:55.142Z,95658.40
2019-03-23T22:45:25.427Z,95662.38
2019-03-23T22:47:55.473Z,95658.14
2019-03-23T22:50:25.609Z,95667.13
2019-03-23T22:52:55.878Z,95657.22
2019-03-23T22:55:26.127Z,95669.23
2019-03-23T22:57:56.735Z,95672.75
2019-03-23T23:00:42.429Z,95676.47
2019-03-23T23:03:13.249Z,95678.82
2019-03-23T23:05:43.914Z,95686.76
2019-03-23T23:08:14.074Z,95684.91
2019-03-23T23:10:44.320Z,95687.61
2019-03-23T23:13:14.473Z,95688.67
2019-03-23T23:15:44.836Z,95683.09
2019-03-23T23:18:15.071Z,95687.77
2019-03-23T23:20:45.406Z,95693.95
2019-03-23T23:23:15.641Z,95691.05
2019-03-23T23:25:45.933Z,95693.45
2019-03-23T23:28:15.981Z,95684.69
2019-03-23T23:30:46.143Z,95684.94
2019-03-23T23:33:16.398Z,95680.16
2019-03-23T23:35:46.698Z,95682.81
2019-03-23T23:38:18.557Z,95687.37
2019-03-23T23:40:48.692Z,95683.40
2019-03-23T23:43:18.670Z,95680.99
2019-03-23T23:45:48.933Z,95682.50
2019-03-23T23:48:19.230Z,95679.04
2019-03-23T23:50:49.544Z,95670.83
2019-03-23T23:53:19.726Z,95666.48
2019-03-23T23:55:49.922Z,95670.77
2019-03-23T23:58:20.062Z,95666.71
